createdAt,value
2018-10-21T00:01:33.212Z,99685.67
2018-10-21T00:04:02.000Z,99690.28
2018-10-21T00:06:31.087Z,99692.81
2018-10-21T00:08:59.822Z,99682.67
2018-10-21T00:11:28.467Z,99684.34
2018-10-21T00:13:57.139Z,99685.15
2018-10-21T00:16:26.045Z,99685.74
2018-10-21T00:18:54.653Z,99684.41
2018-10-21T00:21:23.358Z,99687.51
2018-10-21T00:23:52.164Z,99679.89
2018-10-21T00:26:20.807Z,99678.95
2018-10-21T00:28:49.277Z,99678.20
2018-10-21T00:31:17.988Z,99681.83
2018-10-21T00:33:46.650Z,99676.69
2018-10-21T00:36:15.646Z,99680.80
2018-10-21T00:38:44.342Z,99677.48
2018-10-21T00:41:12.974Z,99675.76
2018-10-21T00:43:41.691Z,99666.02
2018-10-21T00:46:10.670Z,99666.70
2018-10-21T00:48:39.489Z,99659.75
2018-10-21T00:51:08.216Z,99658.98
2018-10-21T00:53:36.740Z,99651.42
2018-10-21T00:56:05.786Z,99645.51
2018-10-21T00:58:34.320Z,99639.51
2018-10-21T01:01:03.167Z,99639.50
2018-10-21T01:03:31.904Z,99632.05
2018-10-21T01:06:00.523Z,99631.69
2018-10-21T01:08:29.284Z,99630.16
2018-10-21T01:10:58.174Z,99620.09
2018-10-21T01:13:26.798Z,99617.83
2018-10-21T01:15:55.566Z,99608.62
2018-10-21T01:18:24.326Z,99617.85
2018-10-21T01:20:52.842Z,99607.34
2018-10-21T01:23:21.661Z,99601.12
2018-10-21T01:25:50.272Z,99596.72
2018-10-21T01:28:18.875Z,99606.20
2018-10-21T01:30:47.522Z,99605.25
2018-10-21T01:33:16.178Z,99598.08
2018-10-21T01:35:44.590Z,99597.89
2018-10-21T01:38:13.313Z,99605.50
2018-10-21T01:40:48.819Z,99603.13
2018-10-21T01:43:18.595Z,99605.80
2018-10-21T01:45:47.286Z,99606.48
2018-10-21T01:48:17.099Z,99610.77
2018-10-21T01:50:45.826Z,99620.86
2018-10-21T01:53:15.406Z,99621.26
2018-10-21T01:55:44.299Z,99615.51
2018-10-21T01:58:13.032Z,99614.00
2018-10-21T02:00:42.200Z,99616.95
2018-10-21T02:03:11.294Z,99616.95
2018-10-21T02:05:40.439Z,99623.16
2018-10-21T02:08:09.052Z,99624.98
2018-10-21T02:10:37.610Z,99618.95
2018-10-21T02:13:06.484Z,99617.25
2018-10-21T02:15:36.082Z,99616.06
2018-10-21T02:18:04.681Z,99610.56
2018-10-21T02:20:33.341Z,99604.63
2018-10-21T02:23:01.876Z,99606.27
2018-10-21T02:25:30.528Z,99597.22
2018-10-21T02:27:59.188Z,99597.62
2018-10-21T02:30:29.011Z,99600.45
2018-10-21T02:32:58.356Z,99599.02
2018-10-21T02:35:26.874Z,99603.31
2018-10-21T02:37:55.999Z,99597.77
2018-10-21T02:41:38.729Z,99600.45
2018-10-21T02:44:09.367Z,99597.84
2018-10-21T02:46:39.073Z,99605.23
2018-10-21T02:49:08.584Z,99599.69
2018-10-21T02:51:37.158Z,99592.83
2018-10-21T02:54:06.483Z,99584.38
2018-10-21T02:56:35.286Z,99585.14
2018-10-21T02:59:03.887Z,99580.16
2018-10-21T03:01:32.569Z,99576.94
2018-10-21T03:04:01.392Z,99578.39
2018-10-21T03:06:30.179Z,99584.02
2018-10-21T03:08:58.713Z,99585.23
2018-10-21T03:11:27.289Z,99579.40
2018-10-21T03:13:56.239Z,99575.00
2018-10-21T03:16:24.859Z,99576.55
2018-10-21T03:18:53.527Z,99579.67
2018-10-21T03:21:22.155Z,99571.92
2018-10-21T03:23:50.599Z,99571.56
2018-10-21T03:26:19.282Z,99569.37
2018-10-21T03:28:48.051Z,99571.38
2018-10-21T03:31:16.837Z,99573.87
2018-10-21T03:33:45.511Z,99574.05
2018-10-21T03:36:13.952Z,99573.54
2018-10-21T03:38:42.742Z,99575.91
2018-10-21T03:41:11.323Z,99574.70
2018-10-21T03:43:40.028Z,99567.89
2018-10-21T03:46:09.106Z,99570.69
2018-10-21T03:48:37.701Z,99578.86
2018-10-21T03:51:06.282Z,99578.43
2018-10-21T03:53:34.963Z,99578.31
2018-10-21T03:56:03.673Z,99576.77
2018-10-21T03:58:32.330Z,99578.86
2018-10-21T04:01:01.055Z,99580.89
2018-10-21T04:03:29.900Z,99577.46
2018-10-21T04:05:58.387Z,99575.36
2018-10-21T04:08:26.995Z,99577.39
2018-10-21T04:10:55.758Z,99576.82
2018-10-21T04:13:24.648Z,99576.70
2018-10-21T04:15:53.225Z,99563.56
2018-10-21T04:18:21.727Z,99561.94
2018-10-21T04:20:50.345Z,99565.68
2018-10-21T04:23:19.177Z,99565.89
2018-10-21T04:25:47.659Z,99561.60
2018-10-21T04:28:16.268Z,99575.06
2018-10-21T04:30:44.929Z,99572.09
2018-10-21T04:33:45.929Z,99570.39
2018-10-21T04:36:24.213Z,99562.30
2018-10-21T04:40:12.765Z,99574.27
2018-10-21T04:42:41.382Z,99576.19
2018-10-21T04:45:10.726Z,99571.40
2018-10-21T04:47:39.559Z,99567.41
2018-10-21T04:50:09.218Z,99573.59
2018-10-21T04:52:38.084Z,99582.95
2018-10-21T04:55:09.170Z,99582.39
2018-10-21T04:57:39.052Z,99578.22
2018-10-21T05:00:14.256Z,99572.67
2018-10-21T05:02:42.927Z,99579.25
2018-10-21T05:05:12.814Z,99578.97
2018-10-21T05:07:42.030Z,99574.39
2018-10-21T05:10:20.936Z,99570.09
2018-10-21T05:12:49.483Z,99579.19
2018-10-21T05:15:18.284Z,99584.73
2018-10-21T05:17:47.107Z,99594.73
2018-10-21T05:20:16.093Z,99589.87
2018-10-21T05:22:44.839Z,99595.78
2018-10-21T05:25:13.940Z,99593.52
2018-10-21T05:27:43.074Z,99592.55
2018-10-21T05:30:12.493Z,99595.98
2018-10-21T05:32:41.384Z,99593.88
2018-10-21T05:35:11.493Z,99587.97
2018-10-21T05:37:40.400Z,99598.77
2018-10-21T05:40:12.559Z,99598.48
2018-10-21T05:42:41.550Z,99597.34
2018-10-21T05:45:10.159Z,99604.11
2018-10-21T05:47:39.609Z,99606.50
2018-10-21T05:50:09.474Z,99606.98
2018-10-21T05:52:38.760Z,99600.95
2018-10-21T05:55:07.744Z,99592.58
2018-10-21T05:57:36.337Z,99603.71
2018-10-21T06:00:06.917Z,99604.59
2018-10-21T06:02:35.843Z,99604.69
2018-10-21T06:05:04.432Z,99604.48
2018-10-21T06:07:33.090Z,99606.88
2018-10-21T06:10:02.124Z,99606.95
2018-10-21T06:12:30.699Z,99616.02
2018-10-21T06:14:59.253Z,99617.64
2018-10-21T06:17:31.414Z,99623.28
2018-10-21T06:20:07.106Z,99621.94
2018-10-21T06:22:40.335Z,99620.80
2018-10-21T06:25:10.382Z,99630.23
2018-10-21T06:27:39.927Z,99621.38
2018-10-21T06:30:10.117Z,99618.86
2018-10-21T06:32:38.959Z,99616.76
2018-10-21T06:35:07.935Z,99623.84
2018-10-21T06:37:36.463Z,99624.61
2018-10-21T06:40:06.327Z,99622.30
2018-10-21T06:42:34.922Z,99624.01
2018-10-21T06:45:03.691Z,99626.70
2018-10-21T06:47:32.285Z,99626.70
2018-10-21T06:50:00.897Z,99620.77
2018-10-21T06:52:29.443Z,99618.97
2018-10-21T06:54:57.955Z,99631.69
2018-10-21T06:57:26.579Z,99630.80
2018-10-21T06:59:55.196Z,99635.86
2018-10-21T07:02:23.668Z,99633.75
2018-10-21T07:04:52.182Z,99635.86
2018-10-21T07:07:20.760Z,99628.32
2018-10-21T07:09:49.235Z,99630.70
2018-10-21T07:12:17.726Z,99630.14
2018-10-21T07:14:46.311Z,99635.08
2018-10-21T07:17:14.771Z,99631.27
2018-10-21T07:19:43.246Z,99623.80
2018-10-21T07:22:12.128Z,99624.19
2018-10-21T07:24:40.702Z,99633.66
2018-10-21T07:27:09.226Z,99629.93
2018-10-21T07:29:37.739Z,99631.84
2018-10-21T07:32:06.294Z,99621.22
2018-10-21T07:34:34.782Z,99620.25
2018-10-21T07:37:03.353Z,99613.83
2018-10-21T07:39:31.854Z,99604.44
2018-10-21T07:42:00.451Z,99605.64
2018-10-21T07:44:29.021Z,99603.77
2018-10-21T07:46:57.486Z,99612.83
2018-10-21T07:49:26.033Z,99600.91
2018-10-21T07:51:54.547Z,99602.22
2018-10-21T07:54:23.181Z,99604.37
2018-10-21T07:56:51.751Z,99605.91
2018-10-21T07:59:20.254Z,99613.14
2018-10-21T08:01:48.771Z,99615.38
2018-10-21T08:04:17.396Z,99611.69
2018-10-21T08:06:56.984Z,99609.54
2018-10-21T08:09:25.498Z,99617.75
2018-10-21T08:11:53.975Z,99617.80
2018-10-21T08:14:22.635Z,99626.38
2018-10-21T08:16:51.155Z,99624.45
2018-10-21T08:19:19.655Z,99625.56
2018-10-21T08:21:48.121Z,99632.92
2018-10-21T08:24:16.715Z,99629.34
2018-10-21T08:26:45.183Z,99626.83
2018-10-21T08:29:13.746Z,99633.45
2018-10-21T08:31:42.231Z,99630.84
2018-10-21T08:34:10.772Z,99627.69
2018-10-21T08:36:39.310Z,99626.27
2018-10-21T08:39:08.182Z,99630.69
2018-10-21T08:41:36.677Z,99633.17
2018-10-21T08:44:05.161Z,99631.98
2018-10-21T08:46:33.748Z,99628.20
2018-10-21T08:49:02.339Z,99627.37
2018-10-21T08:51:30.798Z,99630.78
2018-10-21T08:53:59.290Z,99633.36
2018-10-21T08:56:27.867Z,99625.93
2018-10-21T08:58:56.800Z,99626.86
2018-10-21T09:01:26.463Z,99629.34
2018-10-21T09:03:54.979Z,99626.67
2018-10-21T09:06:23.461Z,99629.20
2018-10-21T09:08:52.003Z,99622.24
2018-10-21T09:11:20.530Z,99623.23
2018-10-21T09:13:49.054Z,99621.40
2018-10-21T09:16:17.668Z,99624.59
2018-10-21T09:18:46.053Z,99620.11
2018-10-21T09:21:14.540Z,99621.00
2018-10-21T09:23:43.149Z,99616.72
2018-10-21T09:26:11.679Z,99616.43
2018-10-21T09:28:40.154Z,99619.61
2018-10-21T09:31:08.726Z,99616.83
2018-10-21T09:33:37.254Z,99621.25
2018-10-21T09:36:05.899Z,99619.16
2018-10-21T09:38:34.419Z,99617.84
2018-10-21T09:41:03.038Z,99611.20
2018-10-21T09:43:31.622Z,99611.44
2018-10-21T09:46:00.228Z,99607.41
2018-10-21T09:48:28.755Z,99602.23
2018-10-21T09:50:57.223Z,99600.89
2018-10-21T09:53:25.696Z,99602.16
2018-10-21T09:55:54.207Z,99606.09
2018-10-21T09:58:22.889Z,99598.22
2018-10-21T10:00:56.980Z,99597.53
2018-10-21T10:03:25.455Z,99596.23
2018-10-21T10:05:53.963Z,99590.72
2018-10-21T10:08:22.547Z,99594.30
2018-10-21T10:10:51.020Z,99594.36
2018-10-21T10:13:19.528Z,99593.89
2018-10-21T10:15:48.006Z,99580.78
2018-10-21T10:18:16.535Z,99574.69
2018-10-21T10:20:45.044Z,99579.13
2018-10-21T10:23:13.525Z,99570.02
2018-10-21T10:25:42.026Z,99570.12
2018-10-21T10:28:10.649Z,99570.73
2018-10-21T10:30:39.213Z,99570.59
2018-10-21T10:33:07.640Z,99561.64
2018-10-21T10:35:36.135Z,99557.47
2018-10-21T10:38:04.688Z,99548.98
2018-10-21T10:40:33.239Z,99542.66
2018-10-21T10:43:01.778Z,99540.06
2018-10-21T10:45:31.293Z,99531.19
2018-10-21T10:47:59.780Z,99527.50
2018-10-21T10:50:28.375Z,99527.88
2018-10-21T10:52:56.905Z,99527.14
2018-10-21T10:55:29.608Z,99515.70
2018-10-21T10:57:58.197Z,99512.82
2018-10-21T11:00:26.615Z,99504.45
2018-10-21T11:02:55.172Z,99507.07
2018-10-21T11:05:23.753Z,99498.13
2018-10-21T11:07:52.244Z,99500.59
2018-10-21T11:10:20.786Z,99499.56
2018-10-21T11:12:49.670Z,99494.94
2018-10-21T11:15:18.278Z,99500.13
2018-10-21T11:17:46.775Z,99493.33
2018-10-21T11:20:15.330Z,99495.64
2018-10-21T11:22:43.938Z,99488.97
2018-10-21T11:25:12.534Z,99488.77
2018-10-21T11:27:41.059Z,99478.97
2018-10-21T11:30:09.533Z,99472.19
2018-10-21T11:32:38.150Z,99475.20
2018-10-21T11:35:07.100Z,99467.25
2018-10-21T11:37:35.760Z,99473.77
2018-10-21T11:40:04.382Z,99460.81
2018-10-21T11:42:33.074Z,99461.84
2018-10-21T11:45:01.876Z,99452.09
2018-10-21T11:47:30.517Z,99457.30
2018-10-21T11:49:59.088Z,99452.39
2018-10-21T11:52:27.642Z,99449.64
2018-10-21T11:54:56.169Z,99442.16
2018-10-21T11:57:24.646Z,99439.69
2018-10-21T11:59:53.235Z,99439.82
2018-10-21T12:02:21.834Z,99438.67
2018-10-21T12:04:50.371Z,99437.91
2018-10-21T12:07:19.142Z,99434.64
2018-10-21T12:09:47.550Z,99441.48
2018-10-21T12:12:16.042Z,99432.30
2018-10-21T12:14:44.523Z,99436.11
2018-10-21T12:17:13.007Z,99429.72
2018-10-21T12:19:41.529Z,99430.11
2018-10-21T12:22:10.087Z,99422.11
2018-10-21T12:24:38.635Z,99429.84
2018-10-21T12:27:07.158Z,99429.92
2018-10-21T12:29:36.475Z,99431.41
2018-10-21T12:32:05.145Z,99435.34
2018-10-21T12:34:34.002Z,99422.91
2018-10-21T12:37:02.631Z,99420.13
2018-10-21T12:39:31.150Z,99413.59
2018-10-21T12:41:59.699Z,99412.33
2018-10-21T12:44:28.228Z,99404.44
2018-10-21T12:46:56.762Z,99404.66
2018-10-21T12:49:25.343Z,99401.77
2018-10-21T12:51:53.934Z,99403.73
2018-10-21T12:54:22.485Z,99396.86
2018-10-21T12:56:51.071Z,99398.06
2018-10-21T12:59:19.558Z,99391.13
2018-10-21T13:01:48.047Z,99389.92
2018-10-21T13:04:16.677Z,99390.08
2018-10-21T13:06:45.146Z,99386.53
2018-10-21T13:09:13.697Z,99386.14
2018-10-21T13:11:42.315Z,99382.91
2018-10-21T13:14:10.835Z,99376.17
2018-10-21T13:16:39.352Z,99378.42
2018-10-21T13:19:07.986Z,99359.58
2018-10-21T13:21:36.591Z,99366.58
2018-10-21T13:24:05.106Z,99361.70
2018-10-21T13:26:33.676Z,99362.14
2018-10-21T13:29:02.155Z,99358.87
2018-10-21T13:31:30.798Z,99362.47
2018-10-21T13:33:59.333Z,99354.83
2018-10-21T13:36:28.761Z,99350.16
2018-10-21T13:38:57.279Z,99349.68
2018-10-21T13:41:25.867Z,99349.17
2018-10-21T13:43:54.364Z,99345.64
2018-10-21T13:46:22.947Z,99345.59
2018-10-21T13:48:51.785Z,99347.95
2018-10-21T13:51:20.367Z,99349.30
2018-10-21T13:53:48.919Z,99345.59
2018-10-21T13:56:17.527Z,99344.59
2018-10-21T13:58:46.080Z,99343.67
2018-10-21T14:01:14.720Z,99342.98
2018-10-21T14:03:43.447Z,99347.86
2018-10-21T14:06:11.936Z,99344.84
2018-10-21T14:08:40.435Z,99337.53
2018-10-21T14:11:09.015Z,99334.28
2018-10-21T14:13:37.642Z,99337.99
2018-10-21T14:16:06.822Z,99332.26
2018-10-21T14:18:35.313Z,99332.73
2018-10-21T14:21:03.850Z,99325.38
2018-10-21T14:23:32.614Z,99329.63
2018-10-21T14:26:01.133Z,99323.50
2018-10-21T14:28:29.745Z,99322.81
2018-10-21T14:30:58.449Z,99318.48
2018-10-21T14:33:26.940Z,99320.12
2018-10-21T14:35:55.512Z,99323.66
2018-10-21T14:38:24.106Z,99315.44
2018-10-21T14:40:52.630Z,99314.48
2018-10-21T14:43:22.212Z,99308.97
2018-10-21T14:45:50.771Z,99307.31
2018-10-21T14:48:19.559Z,99317.47
2018-10-21T14:50:47.951Z,99310.34
2018-10-21T14:53:16.470Z,99306.73
2018-10-21T14:55:45.304Z,99297.73
2018-10-21T14:58:13.878Z,99293.86
2018-10-21T15:00:42.456Z,99294.72
2018-10-21T15:03:10.925Z,99288.03
2018-10-21T15:05:39.447Z,99286.66
2018-10-21T15:08:08.106Z,99279.27
2018-10-21T15:10:36.623Z,99279.58
2018-10-21T15:13:05.449Z,99281.40
2018-10-21T15:15:35.008Z,99275.28
2018-10-21T15:18:04.154Z,99268.41
2018-10-21T15:20:32.614Z,99275.28
2018-10-21T15:23:01.176Z,99271.02
2018-10-21T15:25:29.709Z,99273.38
2018-10-21T15:27:58.258Z,99268.30
2018-10-21T15:30:26.832Z,99270.72
2018-10-21T15:32:55.387Z,99269.75
2018-10-21T15:35:23.891Z,99272.74
2018-10-21T15:37:52.467Z,99276.16
2018-10-21T15:40:21.025Z,99275.70
2018-10-21T15:42:49.454Z,99277.89
2018-10-21T15:45:18.070Z,99275.66
2018-10-21T15:47:46.611Z,99278.59
2018-10-21T15:50:15.169Z,99271.91
2018-10-21T15:52:43.705Z,99279.45
2018-10-21T15:55:12.349Z,99262.66
2018-10-21T15:57:40.862Z,99261.50
2018-10-21T16:00:11.146Z,99261.16
2018-10-21T16:02:39.781Z,99259.53
2018-10-21T16:05:09.284Z,99258.16
2018-10-21T16:07:37.774Z,99260.59
2018-10-21T16:10:07.528Z,99269.69
2018-10-21T16:12:36.099Z,99271.09
2018-10-21T16:15:05.051Z,99267.55
2018-10-21T16:17:33.528Z,99265.80
2018-10-21T16:20:02.063Z,99274.77
2018-10-21T16:22:30.615Z,99275.88
2018-10-21T16:24:59.115Z,99276.86
2018-10-21T16:27:27.643Z,99277.73
2018-10-21T16:29:56.489Z,99277.02
2018-10-21T16:32:25.042Z,99276.41
2018-10-21T16:34:53.559Z,99275.77
2018-10-21T16:37:22.165Z,99269.03
2018-10-21T16:39:50.731Z,99281.93
2018-10-21T16:42:19.371Z,99275.70
2018-10-21T16:44:47.842Z,99274.62
2018-10-21T16:47:16.511Z,99277.98
2018-10-21T16:49:45.183Z,99276.69
2018-10-21T16:52:13.808Z,99280.44
2018-10-21T16:54:42.475Z,99286.36
2018-10-21T16:57:11.125Z,99291.64
2018-10-21T16:59:39.641Z,99288.06
2018-10-21T17:02:08.183Z,99289.97
2018-10-21T17:04:36.747Z,99293.30
2018-10-21T17:07:06.000Z,99284.23
2018-10-21T17:09:34.728Z,99289.98
2018-10-21T17:12:03.297Z,99290.98
2018-10-21T17:14:31.818Z,99294.70
2018-10-21T17:17:00.475Z,99296.50
2018-10-21T17:19:29.039Z,99297.14
2018-10-21T17:21:57.593Z,99301.20
2018-10-21T17:24:26.296Z,99295.81
2018-10-21T17:26:54.832Z,99295.78
2018-10-21T17:29:23.661Z,99297.56
2018-10-21T17:31:52.185Z,99303.31
2018-10-21T17:34:20.831Z,99299.26
2018-10-21T17:36:49.503Z,99298.84
2018-10-21T17:39:18.148Z,99295.64
2018-10-21T17:41:46.634Z,99302.33
2018-10-21T17:44:15.403Z,99301.39
2018-10-21T17:46:44.077Z,99296.75
2018-10-21T17:49:12.767Z,99302.19
2018-10-21T17:51:41.253Z,99308.60
2018-10-21T17:54:09.755Z,99307.78
2018-10-21T17:56:43.695Z,99308.42
2018-10-21T17:59:12.374Z,99311.89
2018-10-21T18:01:41.070Z,99312.67
2018-10-21T18:04:09.770Z,99309.66
2018-10-21T18:06:38.315Z,99308.93
2018-10-21T18:09:08.971Z,99310.28
2018-10-21T18:11:37.730Z,99307.06
2018-10-21T18:14:06.534Z,99307.20
2018-10-21T18:16:35.374Z,99309.03
2018-10-21T18:19:03.972Z,99307.70
2018-10-21T18:21:32.623Z,99309.91
2018-10-21T18:24:01.176Z,99312.02
2018-10-21T18:26:29.891Z,99304.78
2018-10-21T18:28:58.470Z,99314.81
2018-10-21T18:31:27.204Z,99305.59
2018-10-21T18:33:55.810Z,99313.20
2018-10-21T18:36:24.693Z,99315.79
2018-10-21T18:38:53.375Z,99314.66
2018-10-21T18:41:21.983Z,99308.27
2018-10-21T18:43:50.634Z,99317.44
2018-10-21T18:46:19.335Z,99316.19
2018-10-21T18:48:48.191Z,99321.63
2018-10-21T18:51:16.762Z,99327.33
2018-10-21T18:53:45.460Z,99323.16
2018-10-21T18:56:14.090Z,99325.80
2018-10-21T18:58:42.945Z,99323.73
2018-10-21T19:01:11.527Z,99315.24
2018-10-21T19:03:40.377Z,99320.09
2018-10-21T19:06:08.986Z,99317.05
2018-10-21T19:08:37.615Z,99323.80
2018-10-21T19:11:06.403Z,99324.27
2018-10-21T19:13:35.100Z,99323.41
2018-10-21T19:16:03.757Z,99319.20
2018-10-21T19:18:32.343Z,99318.78
2018-10-21T19:21:02.506Z,99321.84
2018-10-21T19:23:31.345Z,99314.98
2018-10-21T19:25:59.939Z,99310.33
2018-10-21T19:28:28.686Z,99315.27
2018-10-21T19:30:57.429Z,99316.09
2018-10-21T19:33:26.277Z,99310.19
2018-10-21T19:35:54.889Z,99316.84
2018-10-21T19:38:23.491Z,99313.59
2018-10-21T19:40:52.259Z,99313.76
2018-10-21T19:43:20.974Z,99315.94
2018-10-21T19:45:49.489Z,99311.41
2018-10-21T19:48:18.040Z,99313.33
2018-10-21T19:50:46.726Z,99313.77
2018-10-21T19:53:15.333Z,99323.20
2018-10-21T19:55:44.171Z,99320.87
2018-10-21T19:58:12.763Z,99317.43
2018-10-21T20:00:41.385Z,99314.58
2018-10-21T20:03:09.986Z,99318.20
2018-10-21T20:05:38.734Z,99316.69
2018-10-21T20:08:07.336Z,99316.20
2018-10-21T20:10:36.115Z,99319.39
2018-10-21T20:13:04.825Z,99318.13
2018-10-21T20:15:33.767Z,99319.62
2018-10-21T20:18:02.380Z,99323.69
2018-10-21T20:20:31.850Z,99328.97
2018-10-21T20:23:00.476Z,99330.10
2018-10-21T20:25:29.119Z,99320.09
2018-10-21T20:27:57.818Z,99324.67
2018-10-21T20:30:27.455Z,99330.41
2018-10-21T20:32:56.144Z,99331.50
2018-10-21T20:35:25.061Z,99330.23
2018-10-21T20:37:53.669Z,99331.08
2018-10-21T20:40:22.300Z,99328.49
2018-10-21T20:42:50.984Z,99320.21
2018-10-21T20:45:19.720Z,99324.30
2018-10-21T20:47:48.441Z,99320.27
2018-10-21T20:50:17.109Z,99322.94
2018-10-21T20:52:45.953Z,99320.39
2018-10-21T20:55:14.622Z,99326.43
2018-10-21T20:57:43.279Z,99322.81
2018-10-21T21:00:11.957Z,99327.70
2018-10-21T21:02:40.578Z,99324.06
2018-10-21T21:05:09.930Z,99325.34
2018-10-21T21:07:38.643Z,99320.91
2018-10-21T21:10:08.182Z,99322.37
2018-10-21T21:12:37.006Z,99326.77
2018-10-21T21:15:06.383Z,99330.32
2018-10-21T21:17:35.233Z,99334.00
2018-10-21T21:20:03.839Z,99333.01
2018-10-21T21:22:32.563Z,99339.38
2018-10-21T21:25:01.096Z,99336.28
2018-10-21T21:27:29.870Z,99339.89
2018-10-21T21:29:58.458Z,99340.36
2018-10-21T21:32:27.125Z,99343.41
2018-10-21T21:34:55.678Z,99340.23
2018-10-21T21:37:24.302Z,99337.02
2018-10-21T21:39:52.936Z,99346.86
2018-10-21T21:42:21.615Z,99339.20
2018-10-21T21:44:50.230Z,99329.91
2018-10-21T21:47:18.863Z,99331.55
2018-10-21T21:49:47.457Z,99335.47
2018-10-21T21:52:16.157Z,99329.75
2018-10-21T21:54:44.682Z,99340.86
2018-10-21T21:57:13.206Z,99342.89
2018-10-21T21:59:41.874Z,99341.31
2018-10-21T22:02:10.393Z,99344.98
2018-10-21T22:04:38.934Z,99340.34
2018-10-21T22:07:07.570Z,99333.77
2018-10-21T22:09:36.095Z,99337.87
2018-10-21T22:12:04.881Z,99335.47
2018-10-21T22:14:33.443Z,99333.77
2018-10-21T22:17:02.131Z,99332.34
2018-10-21T22:19:30.985Z,99330.01
2018-10-21T22:21:59.671Z,99332.98
2018-10-21T22:24:28.248Z,99329.03
2018-10-21T22:26:56.984Z,99325.27
2018-10-21T22:29:25.690Z,99324.81
2018-10-21T22:31:54.216Z,99328.40
2018-10-21T22:34:22.943Z,99327.17
2018-10-21T22:36:53.419Z,99325.37
2018-10-21T22:39:22.111Z,99328.79
2018-10-21T22:41:50.839Z,99326.20
2018-10-21T22:44:19.590Z,99317.45
2018-10-21T22:46:48.235Z,99318.79
2018-10-21T22:49:16.779Z,99324.31
2018-10-21T22:51:45.716Z,99322.36
2018-10-21T22:54:14.329Z,99322.67
2018-10-21T22:56:42.991Z,99317.97
2018-10-21T22:59:11.666Z,99322.89
2018-10-21T23:01:40.259Z,99323.11
2018-10-21T23:04:08.897Z,99321.09
2018-10-21T23:06:37.370Z,99318.69
2018-10-21T23:09:08.466Z,99325.01
2018-10-21T23:11:37.150Z,99331.48
2018-10-21T23:14:05.775Z,99322.31
2018-10-21T23:16:34.578Z,99322.83
2018-10-21T23:19:14.538Z,99320.77
2018-10-21T23:21:43.161Z,99325.33
2018-10-21T23:24:12.103Z,99331.38
2018-10-21T23:26:40.667Z,99328.03
2018-10-21T23:29:09.534Z,99334.03
2018-10-21T23:31:38.360Z,99337.01
2018-10-21T23:34:07.201Z,99334.20
2018-10-21T23:36:35.844Z,99334.89
2018-10-21T23:39:04.982Z,99335.45
2018-10-21T23:41:33.723Z,99335.89
2018-10-21T23:44:02.351Z,99338.33
2018-10-21T23:46:30.971Z,99336.68
2018-10-21T23:49:00.199Z,99336.52
2018-10-21T23:51:28.832Z,99338.27
2018-10-21T23:53:57.734Z,99331.16
2018-10-21T23:56:26.449Z,99334.06
2018-10-21T23:58:56.028Z,99330.30
